sensor_id;sensor_type;location;lat;lon;timestamp;temperature;humidity
12291;DHT22;6208;48.956;9.076;2024-01-25T00:00:00;10.20;99.90
12291;DHT22;6208;48.956;9.076;2024-01-25T00:02:44;10.20;99.90
12291;DHT22;6208;48.956;9.076;2024-01-25T00:05:28;10.20;99.90
12291;DHT22;6208;48.956;9.076;2024-01-25T00:08:12;10.30;99.90
12291;DHT22;6208;48.956;9.076;2024-01-25T00:10:57;10.30;99.90
12291;DHT22;6208;48.956;9.076;2024-01-25T00:13:41;10.20;99.90
12291;DHT22;6208;48.956;9.076;2024-01-25T00:16:27;10.20;99.90
12291;DHT22;6208;48.956;9.076;2024-01-25T00:19:11;10.10;99.90
12291;DHT22;6208;48.956;9.076;2024-01-25T00:21:55;10.20;99.90
12291;DHT22;6208;48.956;9.076;2024-01-25T00:24:39;13.00;99.90
12291;DHT22;6208;48.956;9.076;2024-01-25T00:27:23;10.20;99.90
12291;DHT22;6208;48.956;9.076;2024-01-25T00:30:08;10.20;99.90
12291;DHT22;6208;48.956;9.076;2024-01-25T00:32:53;10.20;99.90
12291;DHT22;6208;48.956;9.076;2024-01-25T00:35:37;10.20;99.90
12291;DHT22;6208;48.956;9.076;2024-01-25T00:38:21;10.20;99.90
12291;DHT22;6208;48.956;9.076;2024-01-25T00:41:08;10.20;99.90
12291;DHT22;6208;48.956;9.076;2024-01-25T00:43:53;10.20;99.90
12291;DHT22;6208;48.956;9.076;2024-01-25T00:46:38;10.20;99.90
12291;DHT22;6208;48.956;9.076;2024-01-25T00:49:22;10.20;99.90
12291;DHT22;6208;48.956;9.076;2024-01-25T00:52:07;10.20;99.90
12291;DHT22;6208;48.956;9.076;2024-01-25T00:54:52;10.30;99.90
12291;DHT22;6208;48.956;9.076;2024-01-25T00:57:37;10.30;99.90
12291;DHT22;6208;48.956;9.076;2024-01-25T01:00:22;10.30;99.90
12291;DHT22;6208;48.956;9.076;2024-01-25T01:03:06;10.30;99.90
12291;DHT22;6208;48.956;9.076;2024-01-25T01:05:51;10.30;99.90
12291;DHT22;6208;48.956;9.076;2024-01-25T01:08:36;10.20;99.90
12291;DHT22;6208;48.956;9.076;2024-01-25T01:11:20;10.30;99.90
12291;DHT22;6208;48.956;9.076;2024-01-25T01:14:05;10.30;99.90
12291;DHT22;6208;48.956;9.076;2024-01-25T01:16:49;10.50;99.90
12291;DHT22;6208;48.956;9.076;2024-01-25T01:19:34;10.30;99.90
12291;DHT22;6208;48.956;9.076;2024-01-25T01:22:18;10.40;99.90
12291;DHT22;6208;48.956;9.076;2024-01-25T01:25:03;10.30;99.90
12291;DHT22;6208;48.956;9.076;2024-01-25T01:27:47;10.30;99.90
12291;DHT22;6208;48.956;9.076;2024-01-25T01:30:32;10.10;99.90
12291;DHT22;6208;48.956;9.076;2024-01-25T01:33:16;10.30;99.90
12291;DHT22;6208;48.956;9.076;2024-01-25T01:36:00;10.30;99.90
12291;DHT22;6208;48.956;9.076;2024-01-25T01:38:44;10.40;99.90
12291;DHT22;6208;48.956;9.076;2024-01-25T01:41:28;10.50;99.90
12291;DHT22;6208;48.956;9.076;2024-01-25T01:44:12;10.40;99.90
12291;DHT22;6208;48.956;9.076;2024-01-25T01:46:56;10.20;99.90
12291;DHT22;6208;48.956;9.076;2024-01-25T01:49:40;10.40;99.90
12291;DHT22;6208;48.956;9.076;2024-01-25T01:52:25;10.20;99.90
12291;DHT22;6208;48.956;9.076;2024-01-25T01:55:09;10.20;99.90
12291;DHT22;6208;48.956;9.076;2024-01-25T01:57:54;10.20;99.90
12291;DHT22;6208;48.956;9.076;2024-01-25T02:00:38;10.20;99.90
12291;DHT22;6208;48.956;9.076;2024-01-25T02:03:25;10.10;99.90
12291;DHT22;6208;48.956;9.076;2024-01-25T02:06:09;10.20;99.90
12291;DHT22;6208;48.956;9.076;2024-01-25T02:08:54;9.80;99.90
12291;DHT22;6208;48.956;9.076;2024-01-25T02:11:40;10.10;99.90
12291;DHT22;6208;48.956;9.076;2024-01-25T02:14:24;10.20;99.90
12291;DHT22;6208;48.956;9.076;2024-01-25T02:17:08;10.30;99.90
12291;DHT22;6208;48.956;9.076;2024-01-25T02:19:52;10.20;99.90
12291;DHT22;6208;48.956;9.076;2024-01-25T02:22:36;10.10;99.90
12291;DHT22;6208;48.956;9.076;2024-01-25T02:25:20;10.10;99.90
12291;DHT22;6208;48.956;9.076;2024-01-25T02:28:05;10.20;99.90
12291;DHT22;6208;48.956;9.076;2024-01-25T02:30:49;10.10;99.90
12291;DHT22;6208;48.956;9.076;2024-01-25T02:33:33;10.00;99.90
12291;DHT22;6208;48.956;9.076;2024-01-25T02:36:17;10.10;99.90
12291;DHT22;6208;48.956;9.076;2024-01-25T02:39:01;10.10;99.90
12291;DHT22;6208;48.956;9.076;2024-01-25T02:41:45;10.10;99.90
12291;DHT22;6208;48.956;9.076;2024-01-25T02:44:29;10.10;99.90
12291;DHT22;6208;48.956;9.076;2024-01-25T02:47:13;10.00;99.90
12291;DHT22;6208;48.956;9.076;2024-01-25T02:49:59;10.00;99.90
12291;DHT22;6208;48.956;9.076;2024-01-25T02:52:43;10.10;99.90
12291;DHT22;6208;48.956;9.076;2024-01-25T02:55:27;10.00;99.90
12291;DHT22;6208;48.956;9.076;2024-01-25T02:58:11;10.00;99.90
12291;DHT22;6208;48.956;9.076;2024-01-25T03:00:56;10.00;99.90
12291;DHT22;6208;48.956;9.076;2024-01-25T03:03:40;10.00;99.90
12291;DHT22;6208;48.956;9.076;2024-01-25T03:06:24;10.00;99.90
12291;DHT22;6208;48.956;9.076;2024-01-25T03:09:08;10.00;99.90
12291;DHT22;6208;48.956;9.076;2024-01-25T03:11:52;10.10;99.90
12291;DHT22;6208;48.956;9.076;2024-01-25T03:14:36;10.00;99.90
12291;DHT22;6208;48.956;9.076;2024-01-25T03:17:20;9.90;99.90
12291;DHT22;6208;48.956;9.076;2024-01-25T03:20:04;9.90;99.90
12291;DHT22;6208;48.956;9.076;2024-01-25T03:22:49;9.90;99.90
12291;DHT22;6208;48.956;9.076;2024-01-25T03:25:34;9.90;99.90
12291;DHT22;6208;48.956;9.076;2024-01-25T03:28:18;9.80;99.90
12291;DHT22;6208;48.956;9.076;2024-01-25T03:31:02;9.80;99.90
12291;DHT22;6208;48.956;9.076;2024-01-25T03:33:47;9.80;99.90
12291;DHT22;6208;48.956;9.076;2024-01-25T03:36:31;9.90;99.90
12291;DHT22;6208;48.956;9.076;2024-01-25T03:39:16;9.80;99.90
12291;DHT22;6208;48.956;9.076;2024-01-25T03:42:01;10.10;99.90
12291;DHT22;6208;48.956;9.076;2024-01-25T03:44:45;9.80;99.90
12291;DHT22;6208;48.956;9.076;2024-01-25T03:47:31;9.90;99.90
12291;DHT22;6208;48.956;9.076;2024-01-25T03:50:15;10.20;99.90
12291;DHT22;6208;48.956;9.076;2024-01-25T03:52:59;9.90;99.90
12291;DHT22;6208;48.956;9.076;2024-01-25T03:55:43;9.90;99.90
12291;DHT22;6208;48.956;9.076;2024-01-25T03:58:28;9.80;99.90
12291;DHT22;6208;48.956;9.076;2024-01-25T04:01:12;9.90;99.90
12291;DHT22;6208;48.956;9.076;2024-01-25T04:03:56;10.10;99.90
12291;DHT22;6208;48.956;9.076;2024-01-25T04:06:41;9.80;99.90
12291;DHT22;6208;48.956;9.076;2024-01-25T04:09:26;9.90;99.90
12291;DHT22;6208;48.956;9.076;2024-01-25T04:12:11;9.80;99.90
12291;DHT22;6208;48.956;9.076;2024-01-25T04:14:55;9.80;99.90
12291;DHT22;6208;48.956;9.076;2024-01-25T04:17:39;9.80;99.90
12291;DHT22;6208;48.956;9.076;2024-01-25T04:20:24;9.80;99.90
12291;DHT22;6208;48.956;9.076;2024-01-25T04:23:08;9.80;99.90
12291;DHT22;6208;48.956;9.076;2024-01-25T04:25:52;9.70;99.90
12291;DHT22;6208;48.956;9.076;2024-01-25T04:28:39;9.80;99.90
12291;DHT22;6208;48.956;9.076;2024-01-25T04:31:23;9.80;99.90
12291;DHT22;6208;48.956;9.076;2024-01-25T04:34:07;9.80;99.90
12291;DHT22;6208;48.956;9.076;2024-01-25T04:36:51;9.80;99.90
12291;DHT22;6208;48.956;9.076;2024-01-25T04:39:35;9.80;99.90
12291;DHT22;6208;48.956;9.076;2024-01-25T04:42:19;9.90;99.90
12291;DHT22;6208;48.956;9.076;2024-01-25T04:45:04;10.00;99.90
12291;DHT22;6208;48.956;9.076;2024-01-25T04:47:48;9.80;99.90
12291;DHT22;6208;48.956;9.076;2024-01-25T04:50:32;9.70;99.90
12291;DHT22;6208;48.956;9.076;2024-01-25T04:53:16;9.80;99.90
12291;DHT22;6208;48.956;9.076;2024-01-25T04:56:00;9.70;99.90
12291;DHT22;6208;48.956;9.076;2024-01-25T04:58:44;9.70;99.90
12291;DHT22;6208;48.956;9.076;2024-01-25T05:01:28;9.70;99.90
12291;DHT22;6208;48.956;9.076;2024-01-25T05:04:12;9.60;99.90
12291;DHT22;6208;48.956;9.076;2024-01-25T05:06:56;9.60;99.90
12291;DHT22;6208;48.956;9.076;2024-01-25T05:09:40;9.60;99.90
12291;DHT22;6208;48.956;9.076;2024-01-25T05:12:24;9.60;99.90
12291;DHT22;6208;48.956;9.076;2024-01-25T05:15:08;9.60;99.90
12291;DHT22;6208;48.956;9.076;2024-01-25T05:17:52;9.50;99.90
12291;DHT22;6208;48.956;9.076;2024-01-25T05:20:36;9.50;99.90
12291;DHT22;6208;48.956;9.076;2024-01-25T05:23:21;9.50;99.90
12291;DHT22;6208;48.956;9.076;2024-01-25T05:26:06;9.50;99.90
12291;DHT22;6208;48.956;9.076;2024-01-25T05:28:51;9.20;99.90
12291;DHT22;6208;48.956;9.076;2024-01-25T05:31:35;9.40;99.90
12291;DHT22;6208;48.956;9.076;2024-01-25T05:34:19;9.40;99.90
12291;DHT22;6208;48.956;9.076;2024-01-25T05:37:03;9.40;99.90
12291;DHT22;6208;48.956;9.076;2024-01-25T05:39:48;9.40;99.90
12291;DHT22;6208;48.956;9.076;2024-01-25T05:42:32;9.30;99.90
12291;DHT22;6208;48.956;9.076;2024-01-25T05:45:16;9.30;99.90
12291;DHT22;6208;48.956;9.076;2024-01-25T05:48:03;9.30;99.90
12291;DHT22;6208;48.956;9.076;2024-01-25T05:50:48;9.30;99.90
12291;DHT22;6208;48.956;9.076;2024-01-25T05:53:33;9.30;99.90
12291;DHT22;6208;48.956;9.076;2024-01-25T05:56:16;9.10;99.90
12291;DHT22;6208;48.956;9.076;2024-01-25T05:59:01;9.20;99.90
12291;DHT22;6208;48.956;9.076;2024-01-25T06:01:45;9.10;99.90
12291;DHT22;6208;48.956;9.076;2024-01-25T06:04:30;9.10;99.90
12291;DHT22;6208;48.956;9.076;2024-01-25T06:07:14;10.60;99.90
12291;DHT22;6208;48.956;9.076;2024-01-25T06:09:58;9.10;99.90
12291;DHT22;6208;48.956;9.076;2024-01-25T06:12:42;9.10;99.90
12291;DHT22;6208;48.956;9.076;2024-01-25T06:15:26;9.00;99.90
12291;DHT22;6208;48.956;9.076;2024-01-25T06:18:10;9.00;99.90
12291;DHT22;6208;48.956;9.076;2024-01-25T06:20:54;9.00;99.90
12291;DHT22;6208;48.956;9.076;2024-01-25T06:23:39;8.90;99.90
12291;DHT22;6208;48.956;9.076;2024-01-25T06:26:23;10.20;99.90
12291;DHT22;6208;48.956;9.076;2024-01-25T06:29:07;9.00;99.90
12291;DHT22;6208;48.956;9.076;2024-01-25T06:31:51;9.10;99.90
12291;DHT22;6208;48.956;9.076;2024-01-25T06:34:35;9.00;99.90
12291;DHT22;6208;48.956;9.076;2024-01-25T06:37:19;9.00;99.90
12291;DHT22;6208;48.956;9.076;2024-01-25T06:40:04;9.00;99.90
12291;DHT22;6208;48.956;9.076;2024-01-25T06:42:49;9.00;99.90
12291;DHT22;6208;48.956;9.076;2024-01-25T06:45:33;9.00;99.90
12291;DHT22;6208;48.956;9.076;2024-01-25T06:48:17;9.10;99.90
12291;DHT22;6208;48.956;9.076;2024-01-25T06:51:02;8.80;99.90
12291;DHT22;6208;48.956;9.076;2024-01-25T06:53:46;8.80;99.90
12291;DHT22;6208;48.956;9.076;2024-01-25T06:56:30;8.80;99.90
12291;DHT22;6208;48.956;9.076;2024-01-25T06:59:15;8.80;99.90
12291;DHT22;6208;48.956;9.076;2024-01-25T07:01:59;8.80;99.90
12291;DHT22;6208;48.956;9.076;2024-01-25T07:04:44;8.80;99.90
12291;DHT22;6208;48.956;9.076;2024-01-25T07:07:28;8.80;99.90
12291;DHT22;6208;48.956;9.076;2024-01-25T07:10:12;8.80;99.90
12291;DHT22;6208;48.956;9.076;2024-01-25T07:12:56;9.00;99.90
12291;DHT22;6208;48.956;9.076;2024-01-25T07:15:40;8.90;99.90
12291;DHT22;6208;48.956;9.076;2024-01-25T07:18:25;8.90;99.90
12291;DHT22;6208;48.956;9.076;2024-01-25T07:21:09;8.90;99.90
12291;DHT22;6208;48.956;9.076;2024-01-25T07:23:53;8.90;99.90
12291;DHT22;6208;48.956;9.076;2024-01-25T07:26:38;8.90;99.90
12291;DHT22;6208;48.956;9.076;2024-01-25T07:29:22;8.80;99.90
12291;DHT22;6208;48.956;9.076;2024-01-25T07:32:07;8.90;99.90
12291;DHT22;6208;48.956;9.076;2024-01-25T07:34:51;8.80;99.90
12291;DHT22;6208;48.956;9.076;2024-01-25T07:37:36;8.80;99.90
12291;DHT22;6208;48.956;9.076;2024-01-25T07:40:20;8.80;99.90
12291;DHT22;6208;48.956;9.076;2024-01-25T07:43:04;11.40;99.90
12291;DHT22;6208;48.956;9.076;2024-01-25T07:45:48;8.70;99.90
12291;DHT22;6208;48.956;9.076;2024-01-25T07:48:32;8.70;99.90
12291;DHT22;6208;48.956;9.076;2024-01-25T07:51:17;8.70;99.90
12291;DHT22;6208;48.956;9.076;2024-01-25T07:54:01;8.30;99.90
12291;DHT22;6208;48.956;9.076;2024-01-25T07:56:46;8.60;99.90
12291;DHT22;6208;48.956;9.076;2024-01-25T07:59:30;8.60;99.90
12291;DHT22;6208;48.956;9.076;2024-01-25T08:02:14;8.70;99.90
12291;DHT22;6208;48.956;9.076;2024-01-25T08:05:01;8.60;99.90
12291;DHT22;6208;48.956;9.076;2024-01-25T08:07:45;8.60;99.90
12291;DHT22;6208;48.956;9.076;2024-01-25T08:10:31;8.60;99.90
12291;DHT22;6208;48.956;9.076;2024-01-25T08:13:15;8.00;99.90
12291;DHT22;6208;48.956;9.076;2024-01-25T08:15:59;8.60;99.90
12291;DHT22;6208;48.956;9.076;2024-01-25T08:18:43;8.70;99.90
12291;DHT22;6208;48.956;9.076;2024-01-25T08:21:28;8.70;99.90
12291;DHT22;6208;48.956;9.076;2024-01-25T08:24:12;8.60;99.90
12291;DHT22;6208;48.956;9.076;2024-01-25T08:26:57;8.70;99.90
12291;DHT22;6208;48.956;9.076;2024-01-25T08:29:41;8.70;99.90
12291;DHT22;6208;48.956;9.076;2024-01-25T08:32:25;9.10;99.90
12291;DHT22;6208;48.956;9.076;2024-01-25T08:35:09;8.80;99.90
12291;DHT22;6208;48.956;9.076;2024-01-25T08:37:54;8.80;99.90
12291;DHT22;6208;48.956;9.076;2024-01-25T08:40:38;8.80;99.90
12291;DHT22;6208;48.956;9.076;2024-01-25T08:43:22;8.90;99.90
12291;DHT22;6208;48.956;9.076;2024-01-25T08:46:06;9.00;99.90
12291;DHT22;6208;48.956;9.076;2024-01-25T08:48:51;8.90;99.90
12291;DHT22;6208;48.956;9.076;2024-01-25T08:51:35;8.90;99.90
12291;DHT22;6208;48.956;9.076;2024-01-25T08:54:19;8.90;99.90
12291;DHT22;6208;48.956;9.076;2024-01-25T08:57:04;8.90;99.90
12291;DHT22;6208;48.956;9.076;2024-01-25T08:59:49;8.90;99.90
12291;DHT22;6208;48.956;9.076;2024-01-25T09:02:33;9.00;99.90
12291;DHT22;6208;48.956;9.076;2024-01-25T09:05:17;9.00;99.90
12291;DHT22;6208;48.956;9.076;2024-01-25T09:08:02;9.00;99.90
12291;DHT22;6208;48.956;9.076;2024-01-25T09:10:46;9.00;99.90
12291;DHT22;6208;48.956;9.076;2024-01-25T09:13:30;9.00;99.90
12291;DHT22;6208;48.956;9.076;2024-01-25T09:16:16;9.10;99.90
12291;DHT22;6208;48.956;9.076;2024-01-25T09:19:00;9.10;99.90
12291;DHT22;6208;48.956;9.076;2024-01-25T09:21:44;9.10;99.90
12291;DHT22;6208;48.956;9.076;2024-01-25T09:24:28;9.20;99.90
12291;DHT22;6208;48.956;9.076;2024-01-25T09:27:13;9.20;99.90
12291;DHT22;6208;48.956;9.076;2024-01-25T09:29:57;9.80;99.90
12291;DHT22;6208;48.956;9.076;2024-01-25T09:32:41;9.30;99.90
12291;DHT22;6208;48.956;9.076;2024-01-25T09:35:25;9.20;99.90
12291;DHT22;6208;48.956;9.076;2024-01-25T09:38:09;9.40;99.90
12291;DHT22;6208;48.956;9.076;2024-01-25T09:40:53;9.40;99.90
12291;DHT22;6208;48.956;9.076;2024-01-25T09:43:37;9.50;99.90
12291;DHT22;6208;48.956;9.076;2024-01-25T09:46:21;9.50;99.90
12291;DHT22;6208;48.956;9.076;2024-01-25T09:49:07;9.60;99.90
12291;DHT22;6208;48.956;9.076;2024-01-25T09:51:52;9.60;99.90
12291;DHT22;6208;48.956;9.076;2024-01-25T09:54:36;9.70;99.90
12291;DHT22;6208;48.956;9.076;2024-01-25T09:57:24;9.70;99.90
12291;DHT22;6208;48.956;9.076;2024-01-25T10:00:09;9.70;99.90
12291;DHT22;6208;48.956;9.076;2024-01-25T10:02:55;9.80;99.90
12291;DHT22;6208;48.956;9.076;2024-01-25T10:05:40;9.80;99.90
12291;DHT22;6208;48.956;9.076;2024-01-25T10:08:24;9.80;99.90
12291;DHT22;6208;48.956;9.076;2024-01-25T10:11:08;9.90;99.90
12291;DHT22;6208;48.956;9.076;2024-01-25T10:13:52;9.90;99.90
12291;DHT22;6208;48.956;9.076;2024-01-25T10:16:38;9.90;99.90
12291;DHT22;6208;48.956;9.076;2024-01-25T10:19:22;10.10;99.90
12291;DHT22;6208;48.956;9.076;2024-01-25T10:22:07;9.90;99.90
12291;DHT22;6208;48.956;9.076;2024-01-25T10:24:52;9.90;99.90
12291;DHT22;6208;48.956;9.076;2024-01-25T10:27:40;9.90;99.90
12291;DHT22;6208;48.956;9.076;2024-01-25T10:30:24;10.00;99.90
12291;DHT22;6208;48.956;9.076;2024-01-25T10:33:09;9.90;99.90
12291;DHT22;6208;48.956;9.076;2024-01-25T10:35:54;10.10;99.90
12291;DHT22;6208;48.956;9.076;2024-01-25T10:38:44;10.10;99.90
12291;DHT22;6208;48.956;9.076;2024-01-25T10:41:32;10.20;99.90
12291;DHT22;6208;48.956;9.076;2024-01-25T10:44:17;10.20;99.90
12291;DHT22;6208;48.956;9.076;2024-01-25T10:47:05;10.10;99.90
12291;DHT22;6208;48.956;9.076;2024-01-25T10:49:50;10.10;99.90
12291;DHT22;6208;48.956;9.076;2024-01-25T10:52:38;10.10;99.90
12291;DHT22;6208;48.956;9.076;2024-01-25T10:55:23;10.10;99.90
12291;DHT22;6208;48.956;9.076;2024-01-25T10:58:13;10.20;99.90
12291;DHT22;6208;48.956;9.076;2024-01-25T11:00:57;10.10;99.90
12291;DHT22;6208;48.956;9.076;2024-01-25T11:03:45;10.10;99.90
12291;DHT22;6208;48.956;9.076;2024-01-25T11:06:31;10.10;99.90
12291;DHT22;6208;48.956;9.076;2024-01-25T11:09:20;10.00;99.90
12291;DHT22;6208;48.956;9.076;2024-01-25T11:12:11;10.00;99.90
12291;DHT22;6208;48.956;9.076;2024-01-25T11:14:57;10.00;99.90
12291;DHT22;6208;48.956;9.076;2024-01-25T11:17:41;10.00;99.90
12291;DHT22;6208;48.956;9.076;2024-01-25T11:20:27;9.80;99.90
12291;DHT22;6208;48.956;9.076;2024-01-25T11:23:15;10.00;99.90
12291;DHT22;6208;48.956;9.076;2024-01-25T11:26:00;10.00;99.90
12291;DHT22;6208;48.956;9.076;2024-01-25T11:28:44;10.20;99.90
12291;DHT22;6208;48.956;9.076;2024-01-25T11:31:28;9.90;99.90
12291;DHT22;6208;48.956;9.076;2024-01-25T11:34:13;10.60;99.90
12291;DHT22;6208;48.956;9.076;2024-01-25T11:36:59;10.20;99.90
12291;DHT22;6208;48.956;9.076;2024-01-25T11:39:43;11.80;99.90
12291;DHT22;6208;48.956;9.076;2024-01-25T11:42:28;10.20;99.90
12291;DHT22;6208;48.956;9.076;2024-01-25T11:45:15;10.30;99.90
12291;DHT22;6208;48.956;9.076;2024-01-25T11:47:59;10.30;99.90
12291;DHT22;6208;48.956;9.076;2024-01-25T11:50:43;10.40;99.90
12291;DHT22;6208;48.956;9.076;2024-01-25T11:53:28;10.40;99.90
12291;DHT22;6208;48.956;9.076;2024-01-25T11:56:20;10.40;99.90
12291;DHT22;6208;48.956;9.076;2024-01-25T11:59:05;10.40;99.90
12291;DHT22;6208;48.956;9.076;2024-01-25T12:01:50;10.40;99.90
12291;DHT22;6208;48.956;9.076;2024-01-25T12:04:34;10.40;99.90
12291;DHT22;6208;48.956;9.076;2024-01-25T12:07:18;10.50;99.90
12291;DHT22;6208;48.956;9.076;2024-01-25T12:10:07;10.50;99.90
12291;DHT22;6208;48.956;9.076;2024-01-25T12:12:52;10.70;99.90
12291;DHT22;6208;48.956;9.076;2024-01-25T12:15:37;10.90;99.90
12291;DHT22;6208;48.956;9.076;2024-01-25T12:18:21;10.70;99.90
12291;DHT22;6208;48.956;9.076;2024-01-25T12:21:06;10.70;99.90
12291;DHT22;6208;48.956;9.076;2024-01-25T12:23:50;10.80;99.90
12291;DHT22;6208;48.956;9.076;2024-01-25T12:26:35;10.80;99.90
12291;DHT22;6208;48.956;9.076;2024-01-25T12:29:19;10.80;99.90
12291;DHT22;6208;48.956;9.076;2024-01-25T12:32:03;10.90;99.90
12291;DHT22;6208;48.956;9.076;2024-01-25T12:34:58;10.90;99.90
12291;DHT22;6208;48.956;9.076;2024-01-25T12:37:44;11.20;99.90
12291;DHT22;6208;48.956;9.076;2024-01-25T12:40:28;10.90;99.90
12291;DHT22;6208;48.956;9.076;2024-01-25T12:43:13;11.00;99.90
12291;DHT22;6208;48.956;9.076;2024-01-25T12:45:57;10.90;99.90
12291;DHT22;6208;48.956;9.076;2024-01-25T12:48:41;10.90;99.90
12291;DHT22;6208;48.956;9.076;2024-01-25T12:51:26;10.80;99.90
12291;DHT22;6208;48.956;9.076;2024-01-25T12:54:10;11.00;99.90
12291;DHT22;6208;48.956;9.076;2024-01-25T12:56:54;11.10;99.90
12291;DHT22;6208;48.956;9.076;2024-01-25T12:59:38;11.10;99.90
12291;DHT22;6208;48.956;9.076;2024-01-25T13:02:23;11.20;99.90
12291;DHT22;6208;48.956;9.076;2024-01-25T13:05:07;11.30;99.90
12291;DHT22;6208;48.956;9.076;2024-01-25T13:07:51;11.30;99.90
12291;DHT22;6208;48.956;9.076;2024-01-25T13:10:36;11.30;99.90
12291;DHT22;6208;48.956;9.076;2024-01-25T13:13:20;11.30;99.90
12291;DHT22;6208;48.956;9.076;2024-01-25T13:16:04;11.30;99.90
12291;DHT22;6208;48.956;9.076;2024-01-25T13:18:49;11.30;99.90
12291;DHT22;6208;48.956;9.076;2024-01-25T13:21:33;11.30;99.90
12291;DHT22;6208;48.956;9.076;2024-01-25T13:24:18;11.30;99.90
12291;DHT22;6208;48.956;9.076;2024-01-25T13:27:02;11.40;99.90
12291;DHT22;6208;48.956;9.076;2024-01-25T13:29:47;11.40;99.90
12291;DHT22;6208;48.956;9.076;2024-01-25T13:32:31;11.30;99.90
12291;DHT22;6208;48.956;9.076;2024-01-25T13:35:16;11.20;99.90
12291;DHT22;6208;48.956;9.076;2024-01-25T13:37:59;11.20;99.90
12291;DHT22;6208;48.956;9.076;2024-01-25T13:40:46;11.20;99.90
12291;DHT22;6208;48.956;9.076;2024-01-25T13:43:30;11.20;99.90
12291;DHT22;6208;48.956;9.076;2024-01-25T13:46:14;11.20;99.90
12291;DHT22;6208;48.956;9.076;2024-01-25T13:48:59;11.40;99.90
12291;DHT22;6208;48.956;9.076;2024-01-25T13:51:44;11.30;99.90
12291;DHT22;6208;48.956;9.076;2024-01-25T13:54:29;11.30;99.90
12291;DHT22;6208;48.956;9.076;2024-01-25T13:57:14;11.30;99.90
12291;DHT22;6208;48.956;9.076;2024-01-25T13:59:58;11.10;99.90
12291;DHT22;6208;48.956;9.076;2024-01-25T14:02:42;11.30;99.90
12291;DHT22;6208;48.956;9.076;2024-01-25T14:05:28;11.30;99.90
12291;DHT22;6208;48.956;9.076;2024-01-25T14:08:12;11.30;99.90
12291;DHT22;6208;48.956;9.076;2024-01-25T14:10:59;11.30;99.90
12291;DHT22;6208;48.956;9.076;2024-01-25T14:13:43;11.50;99.90
12291;DHT22;6208;48.956;9.076;2024-01-25T14:16:27;11.50;99.90
12291;DHT22;6208;48.956;9.076;2024-01-25T14:19:11;11.50;99.90
12291;DHT22;6208;48.956;9.076;2024-01-25T14:21:55;11.50;99.90
12291;DHT22;6208;48.956;9.076;2024-01-25T14:24:39;11.60;99.90
12291;DHT22;6208;48.956;9.076;2024-01-25T14:27:23;11.60;99.90
12291;DHT22;6208;48.956;9.076;2024-01-25T14:30:08;11.50;99.90
12291;DHT22;6208;48.956;9.076;2024-01-25T14:32:52;11.50;99.90
12291;DHT22;6208;48.956;9.076;2024-01-25T14:35:36;11.50;99.90
12291;DHT22;6208;48.956;9.076;2024-01-25T14:38:20;11.40;99.90
12291;DHT22;6208;48.956;9.076;2024-01-25T14:41:08;11.40;99.90
12291;DHT22;6208;48.956;9.076;2024-01-25T14:43:52;11.60;99.90
12291;DHT22;6208;48.956;9.076;2024-01-25T14:46:36;11.30;99.90
12291;DHT22;6208;48.956;9.076;2024-01-25T14:49:20;11.30;99.90
12291;DHT22;6208;48.956;9.076;2024-01-25T14:52:04;11.20;99.90
12291;DHT22;6208;48.956;9.076;2024-01-25T14:54:49;11.20;99.90
12291;DHT22;6208;48.956;9.076;2024-01-25T14:57:33;11.10;99.90
12291;DHT22;6208;48.956;9.076;2024-01-25T15:00:18;11.10;99.90
12291;DHT22;6208;48.956;9.076;2024-01-25T15:03:04;11.10;99.90
12291;DHT22;6208;48.956;9.076;2024-01-25T15:05:49;11.10;99.90
12291;DHT22;6208;48.956;9.076;2024-01-25T15:08:33;11.00;99.90
12291;DHT22;6208;48.956;9.076;2024-01-25T15:11:17;11.20;99.90
12291;DHT22;6208;48.956;9.076;2024-01-25T15:14:02;11.00;99.90
12291;DHT22;6208;48.956;9.076;2024-01-25T15:16:46;11.00;99.90
12291;DHT22;6208;48.956;9.076;2024-01-25T15:19:32;11.00;99.90
12291;DHT22;6208;48.956;9.076;2024-01-25T15:22:16;10.90;99.90
12291;DHT22;6208;48.956;9.076;2024-01-25T15:25:00;11.30;99.90
12291;DHT22;6208;48.956;9.076;2024-01-25T15:27:44;10.90;99.90
12291;DHT22;6208;48.956;9.076;2024-01-25T15:30:28;10.90;99.90
12291;DHT22;6208;48.956;9.076;2024-01-25T15:33:12;10.90;99.90
12291;DHT22;6208;48.956;9.076;2024-01-25T15:35:57;10.80;99.90
12291;DHT22;6208;48.956;9.076;2024-01-25T15:38:41;10.80;99.90
12291;DHT22;6208;48.956;9.076;2024-01-25T15:41:25;10.80;99.90
12291;DHT22;6208;48.956;9.076;2024-01-25T15:44:11;10.70;99.90
12291;DHT22;6208;48.956;9.076;2024-01-25T15:46:55;10.70;99.90
12291;DHT22;6208;48.956;9.076;2024-01-25T15:49:39;10.70;99.90
12291;DHT22;6208;48.956;9.076;2024-01-25T15:52:23;10.70;99.90
12291;DHT22;6208;48.956;9.076;2024-01-25T15:55:07;11.10;99.90
12291;DHT22;6208;48.956;9.076;2024-01-25T15:57:52;10.60;99.90
12291;DHT22;6208;48.956;9.076;2024-01-25T16:00:36;10.60;99.90
12291;DHT22;6208;48.956;9.076;2024-01-25T16:03:20;10.50;99.90
12291;DHT22;6208;48.956;9.076;2024-01-25T16:06:04;10.70;99.90
12291;DHT22;6208;48.956;9.076;2024-01-25T16:08:49;10.60;99.90
12291;DHT22;6208;48.956;9.076;2024-01-25T16:11:33;10.50;99.90
12291;DHT22;6208;48.956;9.076;2024-01-25T16:14:17;10.60;99.90
12291;DHT22;6208;48.956;9.076;2024-01-25T16:17:02;10.60;99.90
12291;DHT22;6208;48.956;9.076;2024-01-25T16:19:46;10.60;99.90
12291;DHT22;6208;48.956;9.076;2024-01-25T16:22:30;10.50;99.90
12291;DHT22;6208;48.956;9.076;2024-01-25T16:25:14;10.50;99.90
12291;DHT22;6208;48.956;9.076;2024-01-25T16:27:58;10.50;99.90
12291;DHT22;6208;48.956;9.076;2024-01-25T16:30:43;10.50;99.90
12291;DHT22;6208;48.956;9.076;2024-01-25T16:33:27;10.50;99.90
12291;DHT22;6208;48.956;9.076;2024-01-25T16:36:11;10.50;99.90
12291;DHT22;6208;48.956;9.076;2024-01-25T16:38:55;10.50;99.90
12291;DHT22;6208;48.956;9.076;2024-01-25T16:41:40;10.40;99.90
12291;DHT22;6208;48.956;9.076;2024-01-25T16:44:24;10.50;99.90
12291;DHT22;6208;48.956;9.076;2024-01-25T16:47:08;10.50;99.90
12291;DHT22;6208;48.956;9.076;2024-01-25T16:49:53;10.50;99.90
12291;DHT22;6208;48.956;9.076;2024-01-25T16:52:37;10.40;99.90
12291;DHT22;6208;48.956;9.076;2024-01-25T16:55:21;10.40;99.90
12291;DHT22;6208;48.956;9.076;2024-01-25T16:58:05;10.40;99.90
12291;DHT22;6208;48.956;9.076;2024-01-25T17:00:49;10.40;99.90
12291;DHT22;6208;48.956;9.076;2024-01-25T17:03:35;12.00;99.90
12291;DHT22;6208;48.956;9.076;2024-01-25T17:06:19;10.30;99.90
12291;DHT22;6208;48.956;9.076;2024-01-25T17:09:03;10.70;99.90
12291;DHT22;6208;48.956;9.076;2024-01-25T17:11:47;10.30;99.90
12291;DHT22;6208;48.956;9.076;2024-01-25T17:14:31;10.30;99.90
12291;DHT22;6208;48.956;9.076;2024-01-25T17:17:16;10.30;99.90
12291;DHT22;6208;48.956;9.076;2024-01-25T17:20:00;10.30;99.90
12291;DHT22;6208;48.956;9.076;2024-01-25T17:22:45;10.30;99.90
12291;DHT22;6208;48.956;9.076;2024-01-25T17:25:29;10.30;99.90
12291;DHT22;6208;48.956;9.076;2024-01-25T17:28:13;10.30;99.90
12291;DHT22;6208;48.956;9.076;2024-01-25T17:30:57;10.40;99.90
12291;DHT22;6208;48.956;9.076;2024-01-25T17:33:41;10.40;99.90
12291;DHT22;6208;48.956;9.076;2024-01-25T17:36:25;10.30;99.90
12291;DHT22;6208;48.956;9.076;2024-01-25T17:39:09;10.20;99.90
12291;DHT22;6208;48.956;9.076;2024-01-25T17:41:54;10.20;99.90